sensor_id;sensor_type;location;lat;lon;timestamp;pressure;altitude;pressure_sealevel;temperature;humidity
59767;BME280;46248;58.364;25.582;2024-02-23T00:01:39;99303.59;;;1.79;100.00
59767;BME280;46248;58.364;25.582;2024-02-23T00:05:01;99322.19;;;1.87;100.00
59767;BME280;46248;58.364;25.582;2024-02-23T00:08:25;99312.75;;;1.88;100.00
59767;BME280;46248;58.364;25.582;2024-02-23T00:11:48;99295.66;;;1.83;100.00
59767;BME280;46248;58.364;25.582;2024-02-23T00:15:10;99298.94;;;1.89;100.00
59767;BME280;46248;58.364;25.582;2024-02-23T00:18:32;99300.50;;;1.93;100.00
59767;BME280;46248;58.364;25.582;2024-02-23T00:21:54;99291.88;;;1.94;100.00
59767;BME280;46248;58.364;25.582;2024-02-23T00:25:17;99290.91;;;1.96;100.00
59767;BME280;46248;58.364;25.582;2024-02-23T00:28:39;99293.44;;;1.98;100.00
59767;BME280;46248;58.364;25.582;2024-02-23T00:32:01;99283.00;;;2.01;100.00
59767;BME280;46248;58.364;25.582;2024-02-23T00:35:23;99291.47;;;2.04;100.00
59767;BME280;46248;58.364;25.582;2024-02-23T00:38:45;99263.59;;;1.91;100.00
59767;BME280;46248;58.364;25.582;2024-02-23T00:42:08;99293.16;;;2.05;100.00
59767;BME280;46248;58.364;25.582;2024-02-23T00:45:30;99291.44;;;2.06;100.00
59767;BME280;46248;58.364;25.582;2024-02-23T00:48:52;99289.69;;;2.06;100.00
59767;BME280;46248;58.364;25.582;2024-02-23T00:52:15;99280.19;;;2.07;100.00
59767;BME280;46248;58.364;25.582;2024-02-23T00:55:37;99267.41;;;2.04;100.00
59767;BME280;46248;58.364;25.582;2024-02-23T00:59:01;99269.09;;;2.05;100.00
59767;BME280;46248;58.364;25.582;2024-02-23T01:02:23;99269.03;;;2.06;100.00
59767;BME280;46248;58.364;25.582;2024-02-23T01:05:45;99256.25;;;2.03;100.00
59767;BME280;46248;58.364;25.582;2024-02-23T01:09:07;99242.59;;;2.00;100.00
59767;BME280;46248;58.364;25.582;2024-02-23T01:12:28;99241.69;;;2.01;100.00
59767;BME280;46248;58.364;25.582;2024-02-23T01:15:51;99255.94;;;2.11;100.00
59767;BME280;46248;58.364;25.582;2024-02-23T01:19:14;99254.28;;;2.10;100.00
59767;BME280;46248;58.364;25.582;2024-02-23T01:22:37;99248.19;;;2.11;100.00
59767;BME280;46248;58.364;25.582;2024-02-23T01:25:59;99231.03;;;2.10;100.00
59767;BME280;46248;58.364;25.582;2024-02-23T01:29:21;99238.66;;;2.13;100.00
59767;BME280;46248;58.364;25.582;2024-02-23T01:32:45;99231.63;;;2.17;100.00
59767;BME280;46248;58.364;25.582;2024-02-23T01:36:07;99235.06;;;2.17;100.00
59767;BME280;46248;58.364;25.582;2024-02-23T01:39:30;99236.69;;;2.20;100.00
59767;BME280;46248;58.364;25.582;2024-02-23T01:43:00;99229.13;;;2.15;100.00
59767;BME280;46248;58.364;25.582;2024-02-23T01:46:23;99229.00;;;2.18;100.00
59767;BME280;46248;58.364;25.582;2024-02-23T01:49:46;99223.88;;;2.17;100.00
59767;BME280;46248;58.364;25.582;2024-02-23T01:53:09;99228.16;;;2.18;100.00
59767;BME280;46248;58.364;25.582;2024-02-23T01:56:32;99231.53;;;2.20;100.00
59767;BME280;46248;58.364;25.582;2024-02-23T01:59:57;99225.56;;;2.18;100.00
59767;BME280;46248;58.364;25.582;2024-02-23T02:03:18;99194.88;;;2.10;100.00
59767;BME280;46248;58.364;25.582;2024-02-23T02:06:42;99207.38;;;2.21;100.00
59767;BME280;46248;58.364;25.582;2024-02-23T02:10:05;99197.91;;;2.21;100.00
59767;BME280;46248;58.364;25.582;2024-02-23T02:13:28;99202.19;;;2.21;100.00
59767;BME280;46248;58.364;25.582;2024-02-23T02:16:50;99185.03;;;2.20;100.00
59767;BME280;46248;58.364;25.582;2024-02-23T02:20:12;99197.00;;;2.22;100.00
59767;BME280;46248;58.364;25.582;2024-02-23T02:23:36;99190.81;;;2.26;100.00
59767;BME280;46248;58.364;25.582;2024-02-23T02:26:59;99176.19;;;2.27;100.00
59767;BME280;46248;58.364;25.582;2024-02-23T02:30:21;99173.63;;;2.25;100.00
59767;BME280;46248;58.364;25.582;2024-02-23T02:33:42;99164.44;;;2.18;100.00
59767;BME280;46248;58.364;25.582;2024-02-23T02:37:04;99186.44;;;2.28;100.00
59767;BME280;46248;58.364;25.582;2024-02-23T02:40:28;99184.69;;;2.29;100.00
59767;BME280;46248;58.364;25.582;2024-02-23T02:43:50;99168.63;;;2.21;100.00
59767;BME280;46248;58.364;25.582;2024-02-23T02:47:11;99163.44;;;2.22;100.00
59767;BME280;46248;58.364;25.582;2024-02-23T02:50:33;99174.34;;;2.29;100.00
59767;BME280;46248;58.364;25.582;2024-02-23T02:53:55;99170.94;;;2.28;100.00
59767;BME280;46248;58.364;25.582;2024-02-23T02:57:19;99169.19;;;2.29;100.00
59767;BME280;46248;58.364;25.582;2024-02-23T03:00:40;99157.19;;;2.28;100.00
59767;BME280;46248;58.364;25.582;2024-02-23T03:04:02;99158.03;;;2.28;100.00
59767;BME280;46248;58.364;25.582;2024-02-23T03:07:24;99144.38;;;2.25;100.00
59767;BME280;46248;58.364;25.582;2024-02-23T03:10:46;99157.91;;;2.32;100.00
59767;BME280;46248;58.364;25.582;2024-02-23T03:14:10;99147.53;;;2.33;100.00
59767;BME280;46248;58.364;25.582;2024-02-23T03:17:33;99150.94;;;2.34;100.00
59767;BME280;46248;58.364;25.582;2024-02-23T03:20:54;99150.09;;;2.33;100.00
59767;BME280;46248;58.364;25.582;2024-02-23T03:24:16;99135.44;;;2.34;100.00
59767;BME280;46248;58.364;25.582;2024-02-23T03:27:38;99131.00;;;2.37;100.00
59767;BME280;46248;58.364;25.582;2024-02-23T03:31:02;99129.25;;;2.38;100.00
59767;BME280;46248;58.364;25.582;2024-02-23T03:34:23;99115.78;;;2.29;100.00
59767;BME280;46248;58.364;25.582;2024-02-23T03:37:45;99128.44;;;2.36;100.00
59767;BME280;46248;58.364;25.582;2024-02-23T03:41:07;99127.63;;;2.35;100.00
59767;BME280;46248;58.364;25.582;2024-02-23T03:44:30;99131.91;;;2.36;100.00
59767;BME280;46248;58.364;25.582;2024-02-23T03:47:54;99111.53;;;2.28;100.00
59767;BME280;46248;58.364;25.582;2024-02-23T03:51:16;99119.00;;;2.36;100.00
59767;BME280;46248;58.364;25.582;2024-02-23T03:54:37;99116.44;;;2.35;100.00
59767;BME280;46248;58.364;25.582;2024-02-23T03:57:59;99110.44;;;2.34;100.00
59767;BME280;46248;58.364;25.582;2024-02-23T04:01:21;99109.63;;;2.34;100.00
59767;BME280;46248;58.364;25.582;2024-02-23T04:04:44;99107.78;;;2.36;100.00
59767;BME280;46248;58.364;25.582;2024-02-23T04:08:06;99102.63;;;2.36;100.00
59767;BME280;46248;58.364;25.582;2024-02-23T04:11:28;99094.88;;;2.36;100.00
59767;BME280;46248;58.364;25.582;2024-02-23T04:14:50;99090.44;;;2.39;100.00
59767;BME280;46248;58.364;25.582;2024-02-23T04:18:12;99075.13;;;2.35;100.00
59767;BME280;46248;58.364;25.582;2024-02-23T04:21:36;99085.28;;;2.39;100.00
59767;BME280;46248;58.364;25.582;2024-02-23T04:24:57;99081.72;;;2.42;100.00
59767;BME280;46248;58.364;25.582;2024-02-23T04:28:19;99088.75;;;2.38;100.00
59767;BME280;46248;58.364;25.582;2024-02-23T04:31:41;99092.94;;;2.41;100.00
59767;BME280;46248;58.364;25.582;2024-02-23T04:35:04;99095.53;;;2.41;100.00
59767;BME280;46248;58.364;25.582;2024-02-23T04:38:27;99098.25;;;2.38;100.00
59767;BME280;46248;58.364;25.582;2024-02-23T04:41:49;99085.19;;;2.41;100.00
59767;BME280;46248;58.364;25.582;2024-02-23T04:45:11;99085.31;;;2.38;100.00
59767;BME280;46248;58.364;25.582;2024-02-23T04:48:33;99086.00;;;2.43;100.00
59767;BME280;46248;58.364;25.582;2024-02-23T04:51:56;99079.13;;;2.42;100.00
59767;BME280;46248;58.364;25.582;2024-02-23T04:55:20;99045.41;;;2.24;100.00
59767;BME280;46248;58.364;25.582;2024-02-23T04:58:44;99072.16;;;2.44;100.00
59767;BME280;46248;58.364;25.582;2024-02-23T05:02:06;99075.56;;;2.44;100.00
59767;BME280;46248;58.364;25.582;2024-02-23T05:05:28;99076.28;;;2.48;100.00
59767;BME280;46248;58.364;25.582;2024-02-23T05:08:50;99082.50;;;2.44;100.00
59767;BME280;46248;58.364;25.582;2024-02-23T05:12:14;99074.63;;;2.47;100.00
59767;BME280;46248;58.364;25.582;2024-02-23T05:15:36;99081.47;;;2.48;100.00
59767;BME280;46248;58.364;25.582;2024-02-23T05:18:58;99078.81;;;2.49;100.00
59767;BME280;46248;58.364;25.582;2024-02-23T05:22:20;99063.50;;;2.45;100.00
59767;BME280;46248;58.364;25.582;2024-02-23T05:25:42;99072.81;;;2.49;100.00
59767;BME280;46248;58.364;25.582;2024-02-23T05:29:05;99067.00;;;2.44;100.00
59767;BME280;46248;58.364;25.582;2024-02-23T05:32:27;99067.56;;;2.50;100.00
59767;BME280;46248;58.364;25.582;2024-02-23T05:35:49;99058.28;;;2.46;100.00
59767;BME280;46248;58.364;25.582;2024-02-23T05:39:11;99077.72;;;2.55;100.00
59767;BME280;46248;58.364;25.582;2024-02-23T05:42:33;99066.44;;;2.58;100.00
59767;BME280;46248;58.364;25.582;2024-02-23T05:46:00;99065.78;;;2.52;100.00
59767;BME280;46248;58.364;25.582;2024-02-23T05:49:22;99073.41;;;2.56;100.00
59767;BME280;46248;58.364;25.582;2024-02-23T05:52:44;99060.47;;;2.56;100.00
59767;BME280;46248;58.364;25.582;2024-02-23T05:56:06;99063.06;;;2.56;100.00
59767;BME280;46248;58.364;25.582;2024-02-23T05:59:28;99048.19;;;2.40;100.00
59767;BME280;46248;58.364;25.582;2024-02-23T06:02:51;99081.03;;;2.59;100.00
59767;BME280;46248;58.364;25.582;2024-02-23T06:06:13;99084.53;;;2.58;100.00
59767;BME280;46248;58.364;25.582;2024-02-23T06:09:35;99078.50;;;2.57;100.00
59767;BME280;46248;58.364;25.582;2024-02-23T06:12:57;99082.91;;;2.55;100.00
59767;BME280;46248;58.364;25.582;2024-02-23T06:16:23;99086.25;;;2.57;100.00
59767;BME280;46248;58.364;25.582;2024-02-23T06:19:47;99090.44;;;2.60;100.00
59767;BME280;46248;58.364;25.582;2024-02-23T06:23:09;99099.94;;;2.59;100.00
59767;BME280;46248;58.364;25.582;2024-02-23T06:26:31;99094.78;;;2.59;100.00
59767;BME280;46248;58.364;25.582;2024-02-23T06:29:53;99085.34;;;2.58;100.00
59767;BME280;46248;58.364;25.582;2024-02-23T06:33:16;99083.53;;;2.60;100.00
59767;BME280;46248;58.364;25.582;2024-02-23T06:36:39;99080.91;;;2.62;100.00
59767;BME280;46248;58.364;25.582;2024-02-23T06:40:02;99073.53;;;2.52;100.00
59767;BME280;46248;58.364;25.582;2024-02-23T06:43:24;99083.44;;;2.63;100.00
59767;BME280;46248;58.364;25.582;2024-02-23T06:46:47;99089.44;;;2.64;100.00
59767;BME280;46248;58.364;25.582;2024-02-23T06:50:09;99083.44;;;2.63;100.00
59767;BME280;46248;58.364;25.582;2024-02-23T06:53:33;99076.50;;;2.64;100.00
59767;BME280;46248;58.364;25.582;2024-02-23T06:56:55;99079.84;;;2.66;100.00
59767;BME280;46248;58.364;25.582;2024-02-23T07:00:19;99077.41;;;2.63;100.00
59767;BME280;46248;58.364;25.582;2024-02-23T07:03:41;99084.28;;;2.64;100.00
59767;BME280;46248;58.364;25.582;2024-02-23T07:07:05;99083.31;;;2.66;100.00
59767;BME280;46248;58.364;25.582;2024-02-23T07:10:30;99100.34;;;2.70;100.00
59767;BME280;46248;58.364;25.582;2024-02-23T07:13:52;99094.34;;;2.70;100.00
59767;BME280;46248;58.364;25.582;2024-02-23T07:17:16;99088.22;;;2.72;100.00
59767;BME280;46248;58.364;25.582;2024-02-23T07:20:39;99077.78;;;2.74;100.00
59767;BME280;46248;58.364;25.582;2024-02-23T07:24:01;99067.84;;;2.65;100.00
59767;BME280;46248;58.364;25.582;2024-02-23T07:27:27;99074.25;;;2.77;100.00
59767;BME280;46248;58.364;25.582;2024-02-23T07:30:50;99080.19;;;2.79;100.00
59767;BME280;46248;58.364;25.582;2024-02-23T07:34:13;99091.25;;;2.82;100.00
59767;BME280;46248;58.364;25.582;2024-02-23T07:37:36;99087.69;;;2.85;100.00
59767;BME280;46248;58.364;25.582;2024-02-23T07:40:58;99093.69;;;2.85;100.00
59767;BME280;46248;58.364;25.582;2024-02-23T07:44:21;99093.63;;;2.87;100.00
59767;BME280;46248;58.364;25.582;2024-02-23T07:47:45;99097.81;;;2.89;100.00
59767;BME280;46248;58.364;25.582;2024-02-23T07:51:07;99095.19;;;2.91;100.00
59767;BME280;46248;58.364;25.582;2024-02-23T07:54:29;99102.72;;;2.95;100.00
59767;BME280;46248;58.364;25.582;2024-02-23T07:57:51;99089.81;;;2.95;100.00
59767;BME280;46248;58.364;25.582;2024-02-23T08:01:15;99081.03;;;3.00;100.00
59767;BME280;46248;58.364;25.582;2024-02-23T08:04:37;99074.44;;;2.92;100.00
59767;BME280;46248;58.364;25.582;2024-02-23T08:07:59;99083.47;;;3.03;100.00
59767;BME280;46248;58.364;25.582;2024-02-23T08:11:21;99078.31;;;3.03;100.00
59767;BME280;46248;58.364;25.582;2024-02-23T08:14:43;99079.75;;;3.08;100.00
59767;BME280;46248;58.364;25.582;2024-02-23T08:18:07;99077.81;;;3.13;100.00
59767;BME280;46248;58.364;25.582;2024-02-23T08:21:29;99080.41;;;3.13;100.00
59767;BME280;46248;58.364;25.582;2024-02-23T08:24:51;99070.75;;;3.17;100.00
59767;BME280;46248;58.364;25.582;2024-02-23T08:28:12;99091.28;;;3.21;100.00
59767;BME280;46248;58.364;25.582;2024-02-23T08:31:34;99072.34;;;3.21;100.00
59767;BME280;46248;58.364;25.582;2024-02-23T08:35:03;99067.06;;;3.22;100.00
59767;BME280;46248;58.364;25.582;2024-02-23T08:38:25;99065.28;;;3.25;100.00
59767;BME280;46248;58.364;25.582;2024-02-23T08:41:47;99069.53;;;3.26;100.00
59767;BME280;46248;58.364;25.582;2024-02-23T08:45:09;99045.59;;;3.20;100.00
59767;BME280;46248;58.364;25.582;2024-02-23T08:48:33;99063.44;;;3.27;100.00
59767;BME280;46248;58.364;25.582;2024-02-23T08:51:56;99062.41;;;3.31;100.00
59767;BME280;46248;58.364;25.582;2024-02-23T08:55:18;99070.03;;;3.34;100.00
59767;BME280;46248;58.364;25.582;2024-02-23T08:58:41;99069.06;;;3.36;100.00
59767;BME280;46248;58.364;25.582;2024-02-23T09:02:03;99073.19;;;3.40;100.00
59767;BME280;46248;58.364;25.582;2024-02-23T09:05:25;99068.19;;;3.36;100.00
59767;BME280;46248;58.364;25.582;2024-02-23T09:08:50;99066.38;;;3.38;100.00
59767;BME280;46248;58.364;25.582;2024-02-23T09:12:12;99082.69;;;3.40;100.00
59767;BME280;46248;58.364;25.582;2024-02-23T09:15:36;99080.88;;;3.42;100.00
59767;BME280;46248;58.364;25.582;2024-02-23T09:18:58;99078.44;;;3.39;100.00
59767;BME280;46248;58.364;25.582;2024-02-23T09:22:20;99079.88;;;3.44;100.00
59767;BME280;46248;58.364;25.582;2024-02-23T09:25:44;99082.31;;;3.48;100.00
59767;BME280;46248;58.364;25.582;2024-02-23T09:29:06;99074.56;;;3.48;100.00
59767;BME280;46248;58.364;25.582;2024-02-23T09:32:28;99055.63;;;3.47;100.00
59767;BME280;46248;58.364;25.582;2024-02-23T09:35:50;99068.50;;;3.49;100.00
59767;BME280;46248;58.364;25.582;2024-02-23T09:39:12;99063.25;;;3.50;100.00
59767;BME280;46248;58.364;25.582;2024-02-23T09:42:36;99058.91;;;3.51;100.00
59767;BME280;46248;58.364;25.582;2024-02-23T09:45:59;99061.28;;;3.55;100.00
59767;BME280;46248;58.364;25.582;2024-02-23T09:49:21;99058.63;;;3.57;100.00
59767;BME280;46248;58.364;25.582;2024-02-23T09:52:44;99066.25;;;3.60;100.00
59767;BME280;46248;58.364;25.582;2024-02-23T09:56:08;99072.16;;;3.63;100.00
59767;BME280;46248;58.364;25.582;2024-02-23T09:59:32;99052.19;;;3.65;100.00
59767;BME280;46248;58.364;25.582;2024-02-23T10:02:54;99064.25;;;3.66;100.00
59767;BME280;46248;58.364;25.582;2024-02-23T10:06:17;99064.97;;;3.68;100.00
59767;BME280;46248;58.364;25.582;2024-02-23T10:09:39;99058.91;;;3.70;100.00
59767;BME280;46248;58.364;25.582;2024-02-23T10:13:01;99066.44;;;3.74;100.00
59767;BME280;46248;58.364;25.582;2024-02-23T10:16:26;99064.50;;;3.79;100.00
59767;BME280;46248;58.364;25.582;2024-02-23T10:19:47;99062.59;;;3.83;100.00
59767;BME280;46248;58.364;25.582;2024-02-23T10:23:09;99042.56;;;3.86;100.00
59767;BME280;46248;58.364;25.582;2024-02-23T10:26:32;99045.84;;;3.90;100.00
59767;BME280;46248;58.364;25.582;2024-02-23T10:29:54;99050.81;;;3.95;100.00
59767;BME280;46248;58.364;25.582;2024-02-23T10:33:18;99048.09;;;3.98;100.00
59767;BME280;46248;58.364;25.582;2024-02-23T10:36:42;99047.13;;;4.00;100.00
59767;BME280;46248;58.364;25.582;2024-02-23T10:40:07;99032.25;;;4.04;100.00
59767;BME280;46248;58.364;25.582;2024-02-23T10:43:33;99043.16;;;4.10;100.00
59767;BME280;46248;58.364;25.582;2024-02-23T10:46:58;99043.00;;;4.13;100.00
59767;BME280;46248;58.364;25.582;2024-02-23T10:50:23;99034.09;;;4.19;100.00
59767;BME280;46248;58.364;25.582;2024-02-23T10:53:48;99040.91;;;4.22;100.00
59767;BME280;46248;58.364;25.582;2024-02-23T10:57:11;99048.28;;;4.29;100.00
59767;BME280;46248;58.364;25.582;2024-02-23T11:00:36;99037.22;;;4.26;100.00
59767;BME280;46248;58.364;25.582;2024-02-23T11:03:58;99046.16;;;4.38;100.00
59767;BME280;46248;58.364;25.582;2024-02-23T11:07:22;99047.50;;;4.45;100.00
59767;BME280;46248;58.364;25.582;2024-02-23T11:10:49;99045.94;;;4.42;100.00
59767;BME280;46248;58.364;25.582;2024-02-23T11:14:11;99061.34;;;4.45;100.00
59767;BME280;46248;58.364;25.582;2024-02-23T11:17:36;99052.84;;;4.42;100.00
59767;BME280;46248;58.364;25.582;2024-02-23T11:21:00;99058.03;;;4.42;100.00
59767;BME280;46248;58.364;25.582;2024-02-23T11:24:25;99056.22;;;4.44;100.00
59767;BME280;46248;58.364;25.582;2024-02-23T11:27:49;99060.47;;;4.45;100.00
59767;BME280;46248;58.364;25.582;2024-02-23T11:31:12;99061.19;;;4.48;100.00
59767;BME280;46248;58.364;25.582;2024-02-23T11:34:34;99067.88;;;4.52;100.00
59767;BME280;46248;58.364;25.582;2024-02-23T11:37:56;99063.53;;;4.53;100.00
59767;BME280;46248;58.364;25.582;2024-02-23T11:41:23;99057.59;;;4.51;100.00
59767;BME280;46248;58.364;25.582;2024-02-23T11:44:46;99073.00;;;4.54;100.00
59767;BME280;46248;58.364;25.582;2024-02-23T11:48:08;99082.38;;;4.56;100.00
59767;BME280;46248;58.364;25.582;2024-02-23T11:51:30;99084.13;;;4.56;100.00
59767;BME280;46248;58.364;25.582;2024-02-23T11:54:52;99085.03;;;4.55;100.00
59767;BME280;46248;58.364;25.582;2024-02-23T11:58:15;99077.31;;;4.53;100.00
59767;BME280;46248;58.364;25.582;2024-02-23T12:01:38;99085.81;;;4.57;100.00
59767;BME280;46248;58.364;25.582;2024-02-23T12:05:00;99093.66;;;4.55;100.00
59767;BME280;46248;58.364;25.582;2024-02-23T12:08:22;99092.44;;;4.63;100.00
59767;BME280;46248;58.364;25.582;2024-02-23T12:11:44;99095.63;;;4.68;100.00
59767;BME280;46248;58.364;25.582;2024-02-23T12:15:08;99095.47;;;4.71;100.00
59767;BME280;46248;58.364;25.582;2024-02-23T12:18:33;99095.47;;;4.71;100.00
59767;BME280;46248;58.364;25.582;2024-02-23T12:22:00;99103.78;;;4.77;100.00
59767;BME280;46248;58.364;25.582;2024-02-23T12:25:21;99097.56;;;4.81;100.00
59767;BME280;46248;58.364;25.582;2024-02-23T12:28:44;99103.47;;;4.83;100.00
59767;BME280;46248;58.364;25.582;2024-02-23T12:32:08;99099.28;;;4.81;100.00
59767;BME280;46248;58.364;25.582;2024-02-23T12:35:29;99103.03;;;4.75;100.00
59767;BME280;46248;58.364;25.582;2024-02-23T12:38:51;99108.28;;;4.74;100.00
59767;BME280;46248;58.364;25.582;2024-02-23T12:42:13;99111.72;;;4.74;100.00
59767;BME280;46248;58.364;25.582;2024-02-23T12:45:35;99118.75;;;4.72;100.00
59767;BME280;46248;58.364;25.582;2024-02-23T12:48:59;99110.13;;;4.72;100.00
59767;BME280;46248;58.364;25.582;2024-02-23T12:52:21;99124.09;;;4.69;100.00
59767;BME280;46248;58.364;25.582;2024-02-23T12:55:42;99137.13;;;4.68;100.00
59767;BME280;46248;58.364;25.582;2024-02-23T12:59:04;99141.47;;;4.67;100.00
59767;BME280;46248;58.364;25.582;2024-02-23T13:02:26;99132.38;;;4.58;100.00
59767;BME280;46248;58.364;25.582;2024-02-23T13:05:49;99142.59;;;4.62;100.00
59767;BME280;46248;58.364;25.582;2024-02-23T13:09:12;99149.75;;;4.56;100.00
59767;BME280;46248;58.364;25.582;2024-02-23T13:12:35;99142.13;;;4.53;100.00
59767;BME280;46248;58.364;25.582;2024-02-23T13:15:57;99144.19;;;4.47;100.00
59767;BME280;46248;58.364;25.582;2024-02-23T13:19:18;99149.38;;;4.47;100.00
59767;BME280;46248;58.364;25.582;2024-02-23T13:22:42;99159.88;;;4.44;100.00
59767;BME280;46248;58.364;25.582;2024-02-23T13:26:05;99166.88;;;4.42;100.00
59767;BME280;46248;58.364;25.582;2024-02-23T13:29:27;99163.69;;;4.36;100.00
59767;BME280;46248;58.364;25.582;2024-02-23T13:32:48;99164.72;;;4.32;100.00
59767;BME280;46248;58.364;25.582;2024-02-23T13:36:11;99148.94;;;4.20;100.00
59767;BME280;46248;58.364;25.582;2024-02-23T13:39:34;99167.56;;;4.28;100.00
59767;BME280;46248;58.364;25.582;2024-02-23T13:42:56;99176.16;;;4.28;100.00
59767;BME280;46248;58.364;25.582;2024-02-23T13:46:18;99171.97;;;4.26;100.00
59767;BME280;46248;58.364;25.582;2024-02-23T13:49:40;99175.63;;;4.22;100.00
59767;BME280;46248;58.364;25.582;2024-02-23T13:53:02;99175.75;;;4.19;100.00
59767;BME280;46248;58.364;25.582;2024-02-23T13:56:25;99176.72;;;4.16;100.00
59767;BME280;46248;58.364;25.582;2024-02-23T13:59:48;99182.06;;;4.13;100.00
59767;BME280;46248;58.364;25.582;2024-02-23T14:03:16;99187.38;;;4.10;100.00
59767;BME280;46248;58.364;25.582;2024-02-23T14:06:38;99184.94;;;4.07;100.00
59767;BME280;46248;58.364;25.582;2024-02-23T14:10:00;99186.75;;;4.05;100.00
59767;BME280;46248;58.364;25.582;2024-02-23T14:13:24;99192.84;;;4.04;100.00
59767;BME280;46248;58.364;25.582;2024-02-23T14:16:46;99199.84;;;4.02;100.00
59767;BME280;46248;58.364;25.582;2024-02-23T14:20:09;99198.16;;;4.01;100.00
59767;BME280;46248;58.364;25.582;2024-02-23T14:23:31;99200.19;;;3.94;100.00
59767;BME280;46248;58.364;25.582;2024-02-23T14:26:54;99211.38;;;3.95;100.00
59767;BME280;46248;58.364;25.582;2024-02-23T14:30:17;99218.31;;;3.94;100.00
59767;BME280;46248;58.364;25.582;2024-02-23T14:33:38;99221.09;;;3.89;100.00
59767;BME280;46248;58.364;25.582;2024-02-23T14:37:03;99228.13;;;3.87;100.00
59767;BME280;46248;58.364;25.582;2024-02-23T14:40:25;99223.91;;;3.85;100.00
59767;BME280;46248;58.364;25.582;2024-02-23T14:43:47;99228.25;;;3.84;100.00
59767;BME280;46248;58.364;25.582;2024-02-23T14:47:10;99237.75;;;3.84;100.00
59767;BME280;46248;58.364;25.582;2024-02-23T14:50:33;99242.09;;;3.83;100.00
59767;BME280;46248;58.364;25.582;2024-02-23T14:53:55;99242.03;;;3.85;100.00
59767;BME280;46248;58.364;25.582;2024-02-23T14:57:16;99247.28;;;3.83;100.00
59767;BME280;46248;58.364;25.582;2024-02-23T15:00:38;99256.78;;;3.83;100.00
59767;BME280;46248;58.364;25.582;2024-02-23T15:04:01;99253.41;;;3.81;100.00
59767;BME280;46248;58.364;25.582;2024-02-23T15:07:23;99253.41;;;3.81;100.00
59767;BME280;46248;58.364;25.582;2024-02-23T15:10:45;99262.94;;;3.80;100.00
59767;BME280;46248;58.364;25.582;2024-02-23T15:14:06;99253.56;;;3.78;100.00
59767;BME280;46248;58.364;25.582;2024-02-23T15:17:29;99262.25;;;3.77;100.00
59767;BME280;46248;58.364;25.582;2024-02-23T15:20:53;99266.72;;;3.73;100.00
59767;BME280;46248;58.364;25.582;2024-02-23T15:24:15;99269.34;;;3.72;100.00
59767;BME280;46248;58.364;25.582;2024-02-23T15:27:38;99266.00;;;3.70;100.00
59767;BME280;46248;58.364;25.582;2024-02-23T15:31:01;99253.19;;;3.66;100.00
59767;BME280;46248;58.364;25.582;2024-02-23T15:34:23;99274.63;;;3.70;100.00
59767;BME280;46248;58.364;25.582;2024-02-23T15:37:46;99279.84;;;3.68;100.00
59767;BME280;46248;58.364;25.582;2024-02-23T15:41:08;99290.97;;;3.71;100.00
59767;BME280;46248;58.364;25.582;2024-02-23T15:44:30;99276.69;;;3.62;100.00
59767;BME280;46248;58.364;25.582;2024-02-23T15:47:52;99283.59;;;3.61;100.00
59767;BME280;46248;58.364;25.582;2024-02-23T15:51:14;99304.75;;;3.71;100.00
59767;BME280;46248;58.364;25.582;2024-02-23T15:54:58;99314.34;;;3.69;100.00
59767;BME280;46248;58.364;25.582;2024-02-23T15:58:20;99317.00;;;3.67;100.00
59767;BME280;46248;58.364;25.582;2024-02-23T16:01:41;99322.22;;;3.66;100.00
59767;BME280;46248;58.364;25.582;2024-02-23T16:05:04;99328.16;;;3.70;100.00
59767;BME280;46248;58.364;25.582;2024-02-23T16:08:39;99337.63;;;3.69;100.00
59767;BME280;46248;58.364;25.582;2024-02-23T16:12:04;99335.97;;;3.68;100.00
59767;BME280;46248;58.364;25.582;2024-02-23T16:15:26;99347.16;;;3.68;100.00
59767;BME280;46248;58.364;25.582;2024-02-23T16:18:48;99343.69;;;3.70;100.00
59767;BME280;46248;58.364;25.582;2024-02-23T16:22:10;99347.09;;;3.70;100.00
59767;BME280;46248;58.364;25.582;2024-02-23T16:25:32;99359.13;;;3.71;100.00
59767;BME280;46248;58.364;25.582;2024-02-23T16:28:55;99351.34;;;3.71;100.00
59767;BME280;46248;58.364;25.582;2024-02-23T16:32:18;99358.22;;;3.72;100.00
59767;BME280;46248;58.364;25.582;2024-02-23T16:35:40;99363.34;;;3.74;100.00
59767;BME280;46248;58.364;25.582;2024-02-23T16:39:02;99369.22;;;3.77;100.00
59767;BME280;46248;58.364;25.582;2024-02-23T16:42:27;99371.78;;;3.79;100.00
59767;BME280;46248;58.364;25.582;2024-02-23T16:45:50;99377.91;;;3.76;100.00
59767;BME280;46248;58.364;25.582;2024-02-23T16:49:12;99372.59;;;3.79;100.00
59767;BME280;46248;58.364;25.582;2024-02-23T16:52:34;99373.69;;;3.74;100.00
59767;BME280;46248;58.364;25.582;2024-02-23T16:55:55;99386.38;;;3.80;100.00
59767;BME280;46248;58.364;25.582;2024-02-23T16:59:21;99395.00;;;3.80;100.00
59767;BME280;46248;58.364;25.582;2024-02-23T17:02:45;99397.72;;;3.77;100.00
59767;BME280;46248;58.364;25.582;2024-02-23T17:06:07;99402.00;;;3.78;100.00
59767;BME280;46248;58.364;25.582;2024-02-23T17:09:29;99410.53;;;3.80;100.00
59767;BME280;46248;58.364;25.582;2024-02-23T17:12:51;99412.28;;;3.80;100.00
59767;BME280;46248;58.364;25.582;2024-02-23T17:16:15;99415.72;;;3.80;100.00
59767;BME280;46248;58.364;25.582;2024-02-23T17:19:38;99416.63;;;3.79;100.00
59767;BME280;46248;58.364;25.582;2024-02-23T17:23:01;99408.28;;;3.73;100.00
59767;BME280;46248;58.364;25.582;2024-02-23T17:26:24;99411.63;;;3.75;100.00
59767;BME280;46248;58.364;25.582;2024-02-23T17:29:46;99429.63;;;3.78;100.00
59767;BME280;46248;58.364;25.582;2024-02-23T17:33:08;99435.66;;;3.78;100.00
59767;BME280;46248;58.364;25.582;2024-02-23T17:36:31;99431.50;;;3.74;100.00
59767;BME280;46248;58.364;25.582;2024-02-23T17:39:54;99435.97;;;3.71;100.00